Time;durP1;ratioP1;P1;durP2;ratioP2;P2;SDS_P1;SDS_P2;PMS_P1;PMS_P2;Temp;Humidity;BMP_temperature;BMP_pressure;BME280_temperature;BME280_humidity;BME280_pressure;Samples;Min_cycle;Max_cycle;Signal;HPM_P1;HPM_P2
2022/09/24 00:01:32;;;;;;;9.70;6.90;;;17.30;54.70;;;;;;5054273;28;20460;-87
2022/09/24 00:04:02;;;;;;;8.00;7.00;;;17.30;54.70;;;;;;5056381;28;20846;-89
2022/09/24 00:06:31;;;;;;;8.70;6.93;;;17.30;54.70;;;;;;5051380;28;21079;-88
2022/09/24 00:08:59;;;;;;;12.00;7.40;;;17.30;54.60;;;;;;5045577;28;20464;-87
2022/09/24 00:11:28;;;;;;;9.17;7.30;;;17.30;54.60;;;;;;5010720;28;20452;-87
2022/09/24 00:13:57;;;;;;;7.60;6.80;;;17.30;54.70;;;;;;5030549;28;20473;-88
2022/09/24 00:16:26;;;;;;;10.73;7.50;;;17.20;54.60;;;;;;5037974;28;20453;-88
2022/09/24 00:18:54;;;;;;;7.87;6.97;;;17.20;54.80;;;;;;5038903;28;20512;-88
2022/09/24 00:21:23;;;;;;;8.03;6.60;;;17.20;54.80;;;;;;5031071;28;20968;-87
2022/09/24 00:23:51;;;;;;;7.60;6.80;;;17.30;55.00;;;;;;5038616;28;20976;-88
2022/09/24 00:29:06;;;;;;;8.30;6.53;;;17.20;55.00;;;;;;5039365;28;20533;-87
2022/09/24 00:31:33;;;;;;;11.03;7.20;;;17.20;55.60;;;;;;5052814;28;20438;-89
2022/09/24 00:34:01;;;;;;;8.17;7.17;;;17.20;54.90;;;;;;5039948;28;20477;-88
2022/09/24 00:36:28;;;;;;;8.00;7.00;;;17.20;54.90;;;;;;5046264;28;20809;-88
2022/09/24 00:38:56;;;;;;;9.33;7.80;;;17.20;54.90;;;;;;5037770;28;20484;-88
2022/09/24 00:41:28;;;;;;;8.23;7.17;;;17.20;55.00;;;;;;5059175;28;20457;-88
2022/09/24 00:43:55;;;;;;;7.50;6.70;;;17.20;55.20;;;;;;5038060;28;20465;-89
2022/09/24 00:46:26;;;;;;;7.80;7.00;;;17.20;55.20;;;;;;5043584;28;20451;-87
2022/09/24 00:48:57;;;;;;;8.93;7.37;;;17.20;54.90;;;;;;5023116;28;20438;-88
2022/09/24 00:51:26;;;;;;;18.83;7.50;;;17.20;54.90;;;;;;5052149;28;20449;-87
2022/09/24 00:53:57;;;;;;;8.57;6.73;;;17.10;55.10;;;;;;5056382;28;20468;-89
2022/09/24 00:56:26;;;;;;;8.13;7.07;;;17.10;55.50;;;;;;5035163;28;20507;-87
2022/09/24 00:58:55;;;;;;;9.83;6.80;;;17.10;55.40;;;;;;5042043;28;20481;-87
2022/09/24 01:01:24;;;;;;;8.97;6.60;;;17.10;55.50;;;;;;5055091;28;20444;-87
2022/09/24 01:03:53;;;;;;;6.67;6.00;;;17.10;55.50;;;;;;5038917;28;20472;-87
2022/09/24 01:06:20;;;;;;;14.20;7.13;;;17.10;55.40;;;;;;5056335;28;20445;-89
2022/09/24 01:08:47;;;;;;;9.80;7.47;;;17.10;55.40;;;;;;5025521;28;20451;-88
2022/09/24 01:11:30;;;;;;;7.93;6.73;;;17.10;55.60;;;;;;5026756;28;20518;-87
2022/09/24 01:14:32;;;;;;;7.57;6.77;;;17.10;55.60;;;;;;5034750;28;20469;-88
2022/09/24 01:17:12;;;;;;;7.60;6.70;;;17.00;55.60;;;;;;5041204;28;20451;-87
2022/09/24 01:20:08;;;;;;;7.33;6.50;;;17.00;55.70;;;;;;5053847;28;20465;-87
2022/09/24 01:22:49;;;;;;;8.93;6.70;;;17.00;55.90;;;;;;5056129;28;20836;-88
2022/09/24 01:25:26;;;;;;;7.60;6.87;;;17.00;55.70;;;;;;5025996;28;20857;-86
2022/09/24 01:28:11;;;;;;;9.40;6.83;;;17.00;55.90;;;;;;5052125;28;20472;-88
2022/09/24 01:30:41;;;;;;;7.33;6.50;;;17.00;56.20;;;;;;5020812;28;20447;-87
2022/09/24 01:33:13;;;;;;;13.90;7.17;;;17.00;56.20;;;;;;5060181;28;21045;-87
2022/09/24 01:35:43;;;;;;;12.50;7.20;;;17.00;56.20;;;;;;5034216;28;20457;-87
2022/09/24 01:38:15;;;;;;;8.23;6.83;;;17.00;56.30;;;;;;5037213;28;20993;-87
2022/09/24 01:40:43;;;;;;;9.50;6.60;;;17.00;56.30;;;;;;5040075;28;20441;-88
2022/09/24 01:43:12;;;;;;;6.97;6.27;;;17.00;56.20;;;;;;5035817;28;20480;-87
2022/09/24 01:45:41;;;;;;;8.40;6.63;;;17.00;56.00;;;;;;5021837;28;20464;-89
2022/09/24 01:48:09;;;;;;;8.00;6.87;;;17.00;55.70;;;;;;5029190;28;20449;-87
2022/09/24 01:50:45;;;;;;;7.23;6.63;;;17.00;55.90;;;;;;5054351;28;20449;-86
2022/09/24 01:53:19;;;;;;;8.73;7.27;;;17.00;56.10;;;;;;5037050;28;20469;-87
2022/09/24 01:55:50;;;;;;;8.17;7.03;;;16.90;56.10;;;;;;5038897;28;20453;-88
2022/09/24 01:58:21;;;;;;;8.40;7.10;;;16.90;56.20;;;;;;5035901;28;20465;-87
2022/09/24 02:00:53;;;;;;;9.00;7.30;;;16.90;56.20;;;;;;5039200;28;20463;-89
2022/09/24 02:03:25;;;;;;;7.80;6.17;;;16.90;56.10;;;;;;5021946;28;20477;-87
2022/09/24 02:05:59;;;;;;;9.13;7.30;;;16.90;56.30;;;;;;5040093;28;20523;-88
2022/09/24 02:08:32;;;;;;;6.63;5.87;;;16.90;56.30;;;;;;5013058;28;20484;-87
2022/09/24 02:11:03;;;;;;;8.10;5.70;;;16.90;56.20;;;;;;5050964;28;20992;-88
2022/09/24 02:13:38;;;;;;;9.20;6.70;;;16.90;56.20;;;;;;5053137;28;20477;-88
2022/09/24 02:16:10;;;;;;;7.50;6.70;;;16.90;56.20;;;;;;5036916;28;20464;-88
2022/09/24 02:18:40;;;;;;;7.10;6.40;;;16.90;56.20;;;;;;5028432;28;20473;-88
2022/09/24 02:21:10;;;;;;;6.83;6.23;;;16.90;56.10;;;;;;5053023;28;20472;-91
2022/09/24 02:23:40;;;;;;;7.10;6.33;;;16.80;56.10;;;;;;5023393;28;20476;-88
2022/09/24 02:26:07;;;;;;;7.23;6.53;;;16.80;56.20;;;;;;5043785;28;20452;-88
2022/09/24 02:28:34;;;;;;;6.47;5.80;;;16.80;56.10;;;;;;5036408;28;20440;-90
2022/09/24 02:31:06;;;;;;;8.13;6.30;;;16.80;56.10;;;;;;5051290;28;21149;-89
2022/09/24 02:36:23;;;;;;;7.07;6.20;;;16.70;56.50;;;;;;5049570;28;20981;-88
2022/09/24 02:38:50;;;;;;;7.30;6.60;;;16.80;56.50;;;;;;5041704;28;20556;-89
2022/09/24 02:41:22;;;;;;;8.27;6.43;;;16.80;56.50;;;;;;5049983;28;20436;-88
2022/09/24 02:43:49;;;;;;;8.53;6.77;;;16.80;56.40;;;;;;5039096;28;20849;-89
2022/09/24 02:46:17;;;;;;;6.77;6.03;;;16.80;56.50;;;;;;5019862;28;20459;-87
2022/09/24 02:48:44;;;;;;;6.90;5.90;;;16.80;56.30;;;;;;5032003;28;20442;-87
2022/09/24 02:51:11;;;;;;;8.83;5.70;;;16.80;55.90;;;;;;5046184;28;20992;-88
2022/09/24 02:53:38;;;;;;;6.73;6.00;;;16.70;56.20;;;;;;5024018;28;20484;-87
2022/09/24 02:56:06;;;;;;;7.90;7.17;;;16.70;56.40;;;;;;5051255;28;20457;-88
2022/09/24 02:58:36;;;;;;;7.53;6.00;;;16.70;56.50;;;;;;5035789;28;20512;-88
2022/09/24 03:01:04;;;;;;;9.57;6.50;;;16.70;56.40;;;;;;5017273;28;20548;-89
2022/09/24 03:03:33;;;;;;;6.43;5.77;;;16.70;56.50;;;;;;5032663;28;20527;-87
2022/09/24 03:06:00;;;;;;;8.00;5.80;;;16.70;56.40;;;;;;5054405;28;20437;-87
2022/09/24 03:08:30;;;;;;;9.33;6.50;;;16.70;56.40;;;;;;5043329;28;20532;-90
2022/09/24 03:10:56;;;;;;;9.70;6.77;;;16.70;56.40;;;;;;5040383;28;20536;-87
2022/09/24 03:13:24;;;;;;;6.73;5.40;;;16.70;56.40;;;;;;5039916;28;21028;-89
2022/09/24 03:15:50;;;;;;;6.53;5.80;;;16.70;56.50;;;;;;5058259;28;20445;-88
2022/09/24 03:18:17;;;;;;;7.10;5.43;;;16.60;56.40;;;;;;5041027;28;20462;-88
2022/09/24 03:20:54;;;;;;;8.80;6.60;;;16.60;57.00;;;;;;5039653;28;20998;-89
2022/09/24 03:23:21;;;;;;;6.10;5.50;;;16.60;56.40;;;;;;5040949;28;20491;-88
2022/09/24 03:25:48;;;;;;;10.00;6.10;;;16.60;56.40;;;;;;5039211;28;20587;-87
2022/09/24 03:28:15;;;;;;;6.60;5.90;;;16.60;56.40;;;;;;5056859;28;20453;-87
2022/09/24 03:31:01;;;;;;;6.70;6.07;;;16.60;56.40;;;;;;5020715;28;20455;-89
2022/09/24 03:33:30;;;;;;;7.30;6.10;;;16.60;56.40;;;;;;5047455;28;20969;-88
2022/09/24 03:36:00;;;;;;;7.80;6.67;;;16.60;56.50;;;;;;5057574;28;20460;-87
2022/09/24 03:38:28;;;;;;;9.00;5.97;;;16.50;56.50;;;;;;5032882;28;20449;-89
2022/09/24 03:40:55;;;;;;;5.97;5.30;;;16.50;56.60;;;;;;5042717;28;21111;-87
2022/09/24 03:43:22;;;;;;;6.33;5.73;;;16.50;56.40;;;;;;5057066;28;20478;-88
2022/09/24 03:45:49;;;;;;;10.03;6.07;;;16.50;56.20;;;;;;5057134;28;21071;-87
2022/09/24 03:48:16;;;;;;;8.50;5.53;;;16.50;56.20;;;;;;5043547;28;20508;-88
2022/09/24 03:50:43;;;;;;;9.57;7.30;;;16.50;56.10;;;;;;5059199;28;20441;-87
2022/09/24 03:53:12;;;;;;;7.43;6.67;;;16.40;55.90;;;;;;5041213;28;21167;-87
2022/09/24 03:55:43;;;;;;;6.23;5.50;;;16.40;56.00;;;;;;5015908;28;20466;-87
2022/09/24 03:58:11;;;;;;;8.20;7.00;;;16.40;56.30;;;;;;5044514;28;20451;-88
2022/09/24 04:00:38;;;;;;;10.73;6.70;;;16.40;56.40;;;;;;5021314;28;20566;-92
2022/09/24 04:03:05;;;;;;;7.97;6.60;;;16.30;56.30;;;;;;5038008;28;20469;-88
2022/09/24 04:05:33;;;;;;;10.43;7.27;;;16.30;56.40;;;;;;5028220;28;20457;-90
2022/09/24 04:08:00;;;;;;;12.43;6.80;;;16.40;56.50;;;;;;5057925;28;20467;-87
2022/09/24 04:10:29;;;;;;;9.57;7.20;;;16.40;56.30;;;;;;5040444;28;20477;-87
2022/09/24 04:12:56;;;;;;;9.63;6.83;;;16.30;56.20;;;;;;5024978;28;20492;-87
2022/09/24 04:15:23;;;;;;;9.03;7.27;;;16.30;56.40;;;;;;5025818;28;20460;-87
2022/09/24 04:17:50;;;;;;;12.03;8.73;;;16.30;56.40;;;;;;5059976;28;20994;-88
2022/09/24 04:20:21;;;;;;;13.90;7.97;;;16.30;56.50;;;;;;5054909;28;20529;-87
2022/09/24 04:22:49;;;;;;;12.17;8.07;;;16.30;56.70;;;;;;5015567;28;20461;-87
2022/09/24 04:25:16;;;;;;;15.70;8.40;;;16.20;57.40;;;;;;5037859;28;20701;-89
2022/09/24 04:27:46;;;;;;;12.17;8.93;;;16.20;56.50;;;;;;5015222;28;20448;-90
2022/09/24 04:30:14;;;;;;;9.93;7.60;;;16.20;56.60;;;;;;5030466;28;20532;-88
2022/09/24 04:32:42;;;;;;;16.73;9.20;;;16.20;56.90;;;;;;5026968;28;20531;-88
2022/09/24 04:35:09;;;;;;;14.80;8.50;;;16.10;56.60;;;;;;5044872;28;20462;-88
2022/09/24 04:37:37;;;;;;;14.67;8.07;;;16.10;57.00;;;;;;5025362;28;20451;-87
2022/09/24 04:40:05;;;;;;;18.13;9.70;;;15.60;58.80;;;;;;5045945;28;20469;-87
2022/09/24 04:42:32;;;;;;;13.23;7.97;;;15.50;59.40;;;;;;5039115;28;20575;-87
2022/09/24 04:45:01;;;;;;;13.70;8.67;;;15.60;58.80;;;;;;5057286;28;20515;-89
2022/09/24 04:47:28;;;;;;;10.97;8.33;;;15.80;58.30;;;;;;5020946;28;20461;-90
2022/09/24 04:49:55;;;;;;;12.83;8.77;;;15.80;57.70;;;;;;5038962;28;20453;-90
2022/09/24 04:52:28;;;;;;;16.10;8.50;;;15.90;57.60;;;;;;5037512;28;20905;-90
2022/09/24 04:54:56;;;;;;;9.83;8.03;;;15.90;57.70;;;;;;5010997;28;20450;-89
2022/09/24 04:57:24;;;;;;;10.40;7.83;;;16.00;57.80;;;;;;5017405;28;20569;-88
2022/09/24 04:59:51;;;;;;;10.23;7.90;;;16.00;57.40;;;;;;5042066;28;20938;-90
2022/09/24 05:02:19;;;;;;;10.23;8.13;;;16.00;57.20;;;;;;5009003;28;20473;-89
2022/09/24 05:04:47;;;;;;;11.00;7.00;;;16.00;56.90;;;;;;5023846;28;20449;-89
2022/09/24 05:07:13;;;;;;;11.30;7.10;;;16.10;56.60;;;;;;5034771;28;20457;-89
2022/09/24 05:09:40;;;;;;;8.93;6.70;;;16.00;56.30;;;;;;5049496;28;20456;-86
2022/09/24 05:12:07;;;;;;;8.67;6.77;;;16.00;56.20;;;;;;5022105;28;20890;-88
2022/09/24 05:14:34;;;;;;;9.93;7.40;;;16.00;56.00;;;;;;5021933;28;20454;-91
2022/09/24 05:17:01;;;;;;;11.90;8.57;;;15.90;56.20;;;;;;5033789;28;20808;-88
2022/09/24 05:19:29;;;;;;;29.50;17.30;;;15.80;56.20;;;;;;5032051;28;20461;-90
2022/09/24 05:21:56;;;;;;;75.80;38.60;;;15.80;56.40;;;;;;5053252;28;20581;-88
2022/09/24 05:24:23;;;;;;;67.07;35.03;;;15.80;56.30;;;;;;5049567;28;20464;-88
2022/09/24 05:27:09;;;;;;;11.80;9.17;;;15.80;56.40;;;;;;5051882;28;20468;-90
2022/09/24 05:29:37;;;;;;;12.03;9.13;;;15.80;56.30;;;;;;5055861;28;20444;-89
2022/09/24 05:32:05;;;;;;;12.00;7.40;;;15.70;56.20;;;;;;5006890;28;21031;-89
2022/09/24 05:34:34;;;;;;;9.30;7.80;;;15.70;56.30;;;;;;5040209;28;20755;-88
2022/09/24 05:37:02;;;;;;;11.80;8.60;;;15.70;56.40;;;;;;5054590;28;20444;-91
2022/09/24 05:39:29;;;;;;;8.70;7.33;;;15.80;56.60;;;;;;5020836;28;20469;-90
2022/09/24 05:41:57;;;;;;;9.70;8.13;;;15.80;56.80;;;;;;5021943;28;20456;-87
2022/09/24 05:44:24;;;;;;;7.80;7.00;;;15.80;56.90;;;;;;5033997;28;20457;-90
2022/09/24 05:46:52;;;;;;;12.07;7.37;;;15.80;57.00;;;;;;5022233;28;20681;-90
2022/09/24 05:49:19;;;;;;;13.10;10.67;;;15.60;57.50;;;;;;5023816;28;20445;-93
2022/09/24 05:51:49;;;;;;;13.60;9.60;;;15.40;58.30;;;;;;5038410;28;20548;-92
2022/09/24 05:54:16;;;;;;;10.87;8.03;;;15.50;58.20;;;;;;5034609;28;20548;-89
2022/09/24 05:56:44;;;;;;;10.10;8.03;;;15.50;58.10;;;;;;5029803;28;20452;-87
2022/09/24 05:59:11;;;;;;;11.33;7.90;;;15.50;57.90;;;;;;5000670;28;21059;-88
2022/09/24 06:01:38;;;;;;;10.27;7.57;;;15.60;57.70;;;;;;5019997;28;20577;-88
2022/09/24 06:04:06;;;;;;;10.67;9.07;;;15.50;57.70;;;;;;5035624;28;20475;-88
2022/09/24 06:06:33;;;;;;;9.60;8.60;;;15.50;57.70;;;;;;5005710;28;20449;-88
2022/09/24 06:09:01;;;;;;;11.37;8.90;;;15.50;57.70;;;;;;5039210;28;20461;-88
2022/09/24 06:11:28;;;;;;;14.10;10.30;;;15.50;57.60;;;;;;5036091;28;20827;-87
2022/09/24 06:13:55;;;;;;;9.90;8.67;;;15.30;57.90;;;;;;5034872;28;20930;-87
2022/09/24 06:16:22;;;;;;;12.80;9.10;;;15.20;58.30;;;;;;5033292;28;20453;-89
2022/09/24 06:18:50;;;;;;;14.50;10.23;;;15.00;58.70;;;;;;5020738;28;20928;-89
2022/09/24 06:21:17;;;;;;;15.80;10.83;;;15.10;58.90;;;;;;5039666;28;20882;-91
2022/09/24 06:23:45;;;;;;;16.30;9.70;;;15.30;58.50;;;;;;5017092;28;20457;-87
2022/09/24 06:26:14;;;;;;;13.00;8.67;;;15.40;58.30;;;;;;5024039;28;20442;-88
2022/09/24 06:28:41;;;;;;;13.43;9.70;;;15.30;58.60;;;;;;5018029;28;20445;-87
2022/09/24 06:31:10;;;;;;;13.50;9.60;;;15.50;58.20;;;;;;5038109;28;20453;-87
2022/09/24 06:33:39;;;;;;;14.10;10.63;;;15.60;58.10;;;;;;5013504;28;20481;-89
2022/09/24 06:36:06;;;;;;;14.40;10.00;;;15.70;58.00;;;;;;5004392;28;20550;-88
2022/09/24 06:38:35;;;;;;;18.83;11.17;;;15.80;57.80;;;;;;5022015;28;20457;-91
2022/09/24 06:41:05;;;;;;;20.03;10.93;;;15.80;57.70;;;;;;5020334;28;20568;-89
2022/09/24 06:43:33;;;;;;;27.90;11.87;;;15.60;57.90;;;;;;5013485;28;20487;-88
2022/09/24 06:46:02;;;;;;;16.60;11.10;;;15.50;58.50;;;;;;5053723;28;20452;-90
2022/09/24 06:48:30;;;;;;;17.80;11.10;;;15.50;58.50;;;;;;5044697;28;20883;-89
2022/09/24 06:50:57;;;;;;;29.43;10.77;;;15.50;58.40;;;;;;5051786;28;20807;-88
2022/09/24 06:53:24;;;;;;;21.30;11.23;;;15.20;58.60;;;;;;5052019;28;20690;-91
2022/09/24 06:55:52;;;;;;;27.43;11.90;;;14.60;60.70;;;;;;5023480;28;20452;-90
2022/09/24 06:58:20;;;;;;;20.73;13.00;;;14.60;61.10;;;;;;5052924;28;20449;-87
2022/09/24 07:00:53;;;;;;;23.20;13.93;;;14.50;61.80;;;;;;5032311;28;20575;-87
2022/09/24 07:03:21;;;;;;;18.67;12.77;;;14.90;61.00;;;;;;5053374;28;20477;-87
2022/09/24 07:05:48;;;;;;;17.30;11.57;;;15.10;60.10;;;;;;5039813;28;20479;-91
2022/09/24 07:08:15;;;;;;;24.53;11.90;;;15.20;59.70;;;;;;5018445;28;20461;-88
2022/09/24 07:10:43;;;;;;;20.90;14.00;;;15.10;59.80;;;;;;5051878;28;20460;-89
2022/09/24 07:13:12;;;;;;;19.63;13.37;;;15.10;60.20;;;;;;5034798;28;20480;-90
2022/09/24 07:15:39;;;;;;;16.83;13.00;;;15.10;60.30;;;;;;5006861;28;20542;-87
2022/09/24 07:18:07;;;;;;;23.23;14.47;;;15.00;60.70;;;;;;5039470;28;20452;-89
2022/09/24 07:20:35;;;;;;;21.10;13.70;;;15.10;60.80;;;;;;5049975;28;20469;-89
2022/09/24 07:23:04;;;;;;;20.53;14.10;;;15.50;59.90;;;;;;5031707;28;20469;-90
2022/09/24 07:25:31;;;;;;;24.63;13.67;;;15.60;59.50;;;;;;5035277;28;20449;-90
2022/09/24 07:28:02;;;;;;;21.53;13.20;;;15.80;59.40;;;;;;5027639;28;20444;-88
2022/09/24 07:30:29;;;;;;;17.63;12.40;;;15.80;58.90;;;;;;5027894;28;20440;-90
2022/09/24 07:32:56;;;;;;;19.13;13.00;;;15.80;58.90;;;;;;5030824;28;20559;-89
2022/09/24 07:35:25;;;;;;;19.40;13.30;;;15.70;58.80;;;;;;5027547;28;20464;-90
2022/09/24 07:38:01;;;;;;;23.57;13.37;;;15.40;59.50;;;;;;5061431;28;20470;-89
2022/09/24 07:40:29;;;;;;;17.17;13.00;;;15.50;59.90;;;;;;5027356;28;20468;-90
2022/09/24 07:42:57;;;;;;;17.57;12.93;;;15.70;59.60;;;;;;5058729;28;20476;-89
2022/09/24 07:45:26;;;;;;;19.73;13.10;;;15.70;59.00;;;;;;5009573;28;20472;-90
2022/09/24 07:47:58;;;;;;;19.47;11.63;;;15.50;59.70;;;;;;5061648;28;20460;-89
2022/09/24 07:50:27;;;;;;;18.17;11.87;;;15.40;60.20;;;;;;5050248;28;20613;-88
2022/09/24 07:52:54;;;;;;;18.50;11.60;;;15.50;60.20;;;;;;5049153;28;20485;-88
2022/09/24 07:55:21;;;;;;;16.93;10.80;;;15.50;59.80;;;;;;5029167;28;20483;-88
2022/09/24 07:57:49;;;;;;;15.17;11.73;;;15.50;60.30;;;;;;5025406;28;20544;-91
2022/09/24 08:00:17;;;;;;;15.83;12.10;;;15.30;60.60;;;;;;5050782;28;20507;-92
2022/09/24 08:02:44;;;;;;;15.70;11.43;;;15.20;61.10;;;;;;5029444;28;20453;-89
2022/09/24 08:05:12;;;;;;;17.70;11.93;;;15.40;60.40;;;;;;5032106;28;20441;-89
2022/09/24 08:07:41;;;;;;;24.47;11.83;;;15.60;59.80;;;;;;5049333;28;20491;-90
2022/09/24 08:10:09;;;;;;;17.13;11.17;;;15.90;59.50;;;;;;5040864;28;20463;-89
2022/09/24 08:12:36;;;;;;;18.30;14.10;;;15.90;59.30;;;;;;5043482;28;20472;-90
2022/09/24 08:15:03;;;;;;;17.63;12.70;;;16.10;59.00;;;;;;5032974;28;20447;-90
2022/09/24 08:17:31;;;;;;;19.43;12.73;;;16.20;58.60;;;;;;5030780;28;20480;-89
2022/09/24 08:19:58;;;;;;;17.27;12.07;;;16.30;58.10;;;;;;5043781;28;20532;-89
2022/09/24 08:22:25;;;;;;;14.80;10.83;;;16.10;59.10;;;;;;5025699;28;20514;-89
2022/09/24 08:24:56;;;;;;;20.20;12.83;;;16.00;59.20;;;;;;5051180;28;20452;-89
2022/09/24 08:27:24;;;;;;;15.90;11.50;;;15.90;59.80;;;;;;5028517;28;20503;-86
2022/09/24 08:29:51;;;;;;;16.23;11.97;;;15.90;59.60;;;;;;5038877;28;20445;-91
2022/09/24 08:32:18;;;;;;;18.73;12.07;;;16.10;59.40;;;;;;5047278;28;20980;-88
2022/09/24 08:34:45;;;;;;;14.37;10.80;;;16.30;59.10;;;;;;5056261;28;20434;-89
2022/09/24 08:37:13;;;;;;;18.13;12.80;;;16.40;58.80;;;;;;5040232;28;21019;-92
2022/09/24 08:39:40;;;;;;;14.67;11.40;;;16.50;58.60;;;;;;5041476;28;20437;-92
2022/09/24 08:42:19;;;;;;;14.70;11.87;;;16.50;58.80;;;;;;5027410;28;20468;-89
2022/09/24 08:47:42;;;;;;;13.93;9.57;;;16.50;58.90;;;;;;5026831;28;20436;-89
2022/09/24 08:50:15;;;;;;;14.83;10.60;;;16.70;58.50;;;;;;5059350;28;20451;-89
2022/09/24 08:53:03;;;;;;;15.30;11.20;;;16.70;58.20;;;;;;5038783;28;20480;-89
2022/09/24 08:55:36;;;;;;;14.27;10.30;;;16.70;57.60;;;;;;5030682;28;20457;-88
2022/09/24 08:58:22;;;;;;;13.80;10.60;;;16.70;57.40;;;;;;5056698;28;20791;-89
2022/09/24 09:00:56;;;;;;;14.27;10.87;;;16.80;57.40;;;;;;5029694;28;21032;-89
2022/09/24 09:03:31;;;;;;;15.10;11.33;;;16.90;57.40;;;;;;5042980;28;20476;-90
2022/09/24 09:06:03;;;;;;;14.03;11.27;;;17.10;57.20;;;;;;5040701;28;20551;-91
2022/09/24 09:08:41;;;;;;;14.23;10.00;;;17.20;57.10;;;;;;5031400;28;20520;-89
2022/09/24 09:11:12;;;;;;;14.00;10.27;;;17.20;57.30;;;;;;5036999;28;20442;-89
2022/09/24 09:13:46;;;;;;;14.00;9.73;;;17.30;57.20;;;;;;5010655;28;20740;-92
2022/09/24 09:16:23;;;;;;;15.73;10.13;;;17.50;57.20;;;;;;5026077;28;20945;-89
2022/09/24 09:18:53;;;;;;;15.03;10.70;;;17.60;56.90;;;;;;5043301;28;20448;-89
2022/09/24 09:21:28;;;;;;;13.57;10.20;;;17.70;56.80;;;;;;5053847;28;20469;-89
2022/09/24 09:23:57;;;;;;;15.37;11.07;;;17.80;56.50;;;;;;5020496;28;20461;-88
2022/09/24 09:26:26;;;;;;;11.53;9.17;;;18.00;56.70;;;;;;5052057;28;20553;-88
2022/09/24 09:28:58;;;;;;;13.17;10.23;;;18.20;56.60;;;;;;5025971;28;20462;-89
2022/09/24 09:31:34;;;;;;;10.63;8.97;;;18.20;56.10;;;;;;5036516;28;20460;-89
2022/09/24 09:34:18;;;;;;;9.50;8.40;;;18.40;56.10;;;;;;5021390;28;20465;-89
2022/09/24 09:36:55;;;;;;;9.63;8.47;;;18.70;55.60;;;;;;5032415;28;20507;-86
2022/09/24 09:39:38;;;;;;;11.40;9.03;;;18.70;55.10;;;;;;5050501;28;20452;-87
2022/09/24 09:42:21;;;;;;;12.23;9.50;;;18.80;55.10;;;;;;5020272;28;20472;-89
2022/09/24 09:44:49;;;;;;;11.20;9.20;;;19.00;55.00;;;;;;5034685;28;20518;-88
2022/09/24 09:47:24;;;;;;;12.93;9.33;;;19.10;54.60;;;;;;5050045;28;20488;-86
2022/09/24 09:49:55;;;;;;;12.00;8.77;;;19.30;54.40;;;;;;5055276;28;20457;-86
2022/09/24 09:52:27;;;;;;;11.77;9.20;;;19.40;54.20;;;;;;5052502;28;20476;-87
2022/09/24 09:54:53;;;;;;;12.60;9.20;;;19.60;53.80;;;;;;5041112;28;21105;-86
2022/09/24 09:57:24;;;;;;;12.87;9.00;;;19.80;53.40;;;;;;5051667;28;20525;-86
2022/09/24 09:59:55;;;;;;;11.47;9.73;;;20.00;53.00;;;;;;5051327;28;20777;-87
2022/09/24 10:02:25;;;;;;;11.47;9.63;;;20.00;52.20;;;;;;5031201;28;21013;-86
2022/09/24 10:04:55;;;;;;;10.33;9.23;;;20.20;52.80;;;;;;5050220;28;20446;-88
2022/09/24 10:07:22;;;;;;;9.90;8.80;;;20.30;52.50;;;;;;5052172;28;20457;-87
2022/09/24 10:10:03;;;;;;;11.97;10.20;;;20.40;52.40;;;;;;5049721;28;21008;-87
2022/09/24 10:12:30;;;;;;;14.30;9.87;;;20.40;52.20;;;;;;5035614;28;20875;-88
2022/09/24 10:15:00;;;;;;;13.73;7.93;;;20.30;52.40;;;;;;5038045;28;20468;-89
2022/09/24 10:17:31;;;;;;;13.70;10.07;;;20.40;52.40;;;;;;5016074;28;20923;-88
2022/09/24 10:20:00;;;;;;;12.30;9.03;;;20.50;52.20;;;;;;5050283;28;20448;-87
2022/09/24 10:22:28;;;;;;;10.60;9.50;;;20.40;52.40;;;;;;5032779;28;20496;-87
2022/09/24 10:24:59;;;;;;;12.53;8.70;;;20.50;52.00;;;;;;5018026;28;20460;-88
2022/09/24 10:27:31;;;;;;;14.40;10.97;;;20.70;52.10;;;;;;5032161;28;20842;-87
2022/09/24 10:32:47;;;;;;;12.90;8.20;;;20.90;51.90;;;;;;5008076;28;20600;-88
2022/09/24 10:35:26;;;;;;;8.57;7.70;;;21.00;50.90;;;;;;5032554;28;21044;-87
2022/09/24 10:37:54;;;;;;;14.00;11.00;;;21.10;50.80;;;;;;5032767;28;21020;-86
2022/09/24 10:40:26;;;;;;;12.27;7.37;;;21.30;50.00;;;;;;5020091;28;21079;-86
2022/09/24 10:43:01;;;;;;;12.70;8.47;;;21.30;49.60;;;;;;5018925;28;20992;-87
2022/09/24 10:45:49;;;;;;;13.33;9.40;;;21.40;49.50;;;;;;5015454;28;20452;-87
2022/09/24 10:48:23;;;;;;;10.07;7.80;;;21.50;49.60;;;;;;5050517;28;20456;-85
2022/09/24 10:50:58;;;;;;;12.77;9.20;;;21.40;49.10;;;;;;5048064;28;20445;-87
2022/09/24 10:53:38;;;;;;;17.10;12.43;;;21.40;49.30;;;;;;5019038;28;20469;-87
2022/09/24 10:56:13;;;;;;;12.57;8.67;;;21.50;48.70;;;;;;5033744;28;20460;-87
2022/09/24 10:59:13;;;;;;;11.77;9.00;;;21.60;49.90;;;;;;5015923;28;20452;-86
2022/09/24 11:01:48;;;;;;;9.40;6.73;;;21.70;49.70;;;;;;5027876;28;20835;-86
2022/09/24 11:04:31;;;;;;;10.27;7.20;;;21.90;49.20;;;;;;5020195;28;20469;-87
2022/09/24 11:07:30;;;;;;;7.03;6.43;;;22.20;49.10;;;;;;5017523;28;20438;-89
2022/09/24 11:10:05;;;;;;;10.20;6.97;;;22.40;47.60;;;;;;5027995;28;20468;-87
2022/09/24 11:12:41;;;;;;;9.40;5.57;;;22.50;46.90;;;;;;5032275;28;20484;-87
2022/09/24 11:15:19;;;;;;;7.00;5.73;;;22.50;46.40;;;;;;5049404;28;20444;-86
2022/09/24 11:17:57;;;;;;;6.87;5.53;;;22.40;45.80;;;;;;5020947;28;20921;-86
2022/09/24 11:20:35;;;;;;;5.60;5.00;;;22.20;45.60;;;;;;5051136;28;20449;-87
2022/09/24 11:23:26;;;;;;;7.40;5.10;;;22.50;45.00;;;;;;5048137;28;20480;-88
2022/09/24 11:26:03;;;;;;;3.87;3.20;;;22.80;45.10;;;;;;5016594;28;20456;-88
2022/09/24 11:28:56;;;;;;;4.20;3.80;;;22.90;41.80;;;;;;5054804;28;20483;-87
2022/09/24 11:31:31;;;;;;;4.43;4.03;;;23.20;42.20;;;;;;5053806;28;20943;-87
2022/09/24 11:34:21;;;;;;;4.20;3.80;;;23.20;41.00;;;;;;5034426;28;20838;-86
2022/09/24 11:37:05;;;;;;;5.00;3.87;;;23.20;39.40;;;;;;5022602;28;20542;-87
2022/09/24 11:39:50;;;;;;;4.17;3.77;;;23.30;40.50;;;;;;5037350;28;20508;-87
2022/09/24 11:42:24;;;;;;;5.10;4.23;;;23.30;38.90;;;;;;5044976;28;21366;-87
2022/09/24 11:45:17;;;;;;;6.43;3.83;;;23.10;38.90;;;;;;5036560;28;20457;-89
2022/09/24 11:48:01;;;;;;;3.60;3.30;;;23.00;39.20;;;;;;5026055;28;20456;-87
2022/09/24 11:50:45;;;;;;;6.83;5.40;;;22.80;40.30;;;;;;5054020;28;20476;-86
2022/09/24 11:53:15;;;;;;;3.70;3.40;;;23.00;39.90;;;;;;5035720;28;21038;-87
2022/09/24 11:55:46;;;;;;;5.27;4.30;;;23.20;40.10;;;;;;5034027;28;21257;-88
2022/09/24 11:58:17;;;;;;;5.63;4.50;;;23.30;39.90;;;;;;5055342;28;20952;-87
2022/09/24 12:00:51;;;;;;;3.97;3.43;;;23.40;40.30;;;;;;5023896;28;20438;-86
2022/09/24 12:03:22;;;;;;;7.00;4.67;;;23.50;40.70;;;;;;5035360;28;20477;-87
2022/09/24 12:05:56;;;;;;;4.30;3.90;;;23.60;40.80;;;;;;5034501;28;21139;-86
2022/09/24 12:08:28;;;;;;;4.10;3.60;;;23.70;40.20;;;;;;5053403;28;20461;-86
2022/09/24 12:11:01;;;;;;;4.90;4.03;;;23.60;40.70;;;;;;5049865;28;20449;-88
2022/09/24 12:13:34;;;;;;;6.33;5.50;;;23.80;40.70;;;;;;5052164;28;20473;-86
2022/09/24 12:16:06;;;;;;;5.50;4.47;;;23.50;39.40;;;;;;5019791;28;20464;-86
2022/09/24 12:18:39;;;;;;;4.50;4.10;;;23.30;39.90;;;;;;5052721;28;20450;-86
2022/09/24 12:21:11;;;;;;;6.73;4.70;;;23.40;40.40;;;;;;5019343;28;20452;-86
2022/09/24 12:23:41;;;;;;;7.87;4.90;;;23.50;40.60;;;;;;5051346;28;20457;-88
2022/09/24 12:26:10;;;;;;;5.50;3.77;;;23.60;41.40;;;;;;5034688;28;20456;-86
2022/09/24 12:34:23;;;;;;;3.50;3.20;;;23.70;39.40;;;;;;5024281;28;20460;-87
2022/09/24 12:37:01;;;;;;;4.60;4.20;;;23.60;40.70;;;;;;5008468;28;20452;-86
2022/09/24 12:39:36;;;;;;;3.90;3.37;;;23.70;41.20;;;;;;5021432;28;20449;-87
2022/09/24 12:42:06;;;;;;;4.80;4.33;;;23.70;40.40;;;;;;5037233;28;20484;-88
2022/09/24 12:44:40;;;;;;;4.00;3.70;;;23.40;40.50;;;;;;5005440;28;20953;-88
2022/09/24 12:47:17;;;;;;;5.07;4.30;;;23.40;40.60;;;;;;5056153;28;20444;-86
2022/09/24 12:49:50;;;;;;;8.37;4.37;;;23.20;41.50;;;;;;5037247;28;20464;-87
2022/09/24 12:52:24;;;;;;;8.10;4.80;;;23.30;41.40;;;;;;5029288;28;20464;-87
2022/09/24 12:54:57;;;;;;;5.77;4.53;;;23.40;41.70;;;;;;5035569;28;20669;-87
2022/09/24 12:57:27;;;;;;;7.47;5.43;;;23.60;41.20;;;;;;5033289;28;20468;-87
2022/09/24 12:59:56;;;;;;;13.63;6.97;;;23.70;40.80;;;;;;5035211;28;20448;-87
2022/09/24 13:02:25;;;;;;;5.07;4.57;;;23.90;40.70;;;;;;5051521;28;20511;-88
2022/09/24 13:05:15;;;;;;;9.00;4.70;;;23.90;40.50;;;;;;5043895;28;20447;-88
2022/09/24 13:07:54;;;;;;;8.63;4.63;;;23.70;41.10;;;;;;5035406;28;20471;-88
2022/09/24 13:10:27;;;;;;;6.83;4.37;;;23.70;42.60;;;;;;5034172;28;20449;-87
2022/09/24 13:12:55;;;;;;;9.50;6.37;;;23.90;41.80;;;;;;5020022;28;20469;-87
2022/09/24 13:15:32;;;;;;;11.50;8.60;;;23.70;41.00;;;;;;5049443;28;20465;-85